Time;durP1;ratioP1;P1;durP2;ratioP2;P2;SDS_P1;SDS_P2;PMS_P1;PMS_P2;Temp;Humidity;BMP_temperature;BMP_pressure;BME280_temperature;BME280_humidity;BME280_pressure;Samples;Min_cycle;Max_cycle;Signal;HPM_P1;HPM_P2
2023/12/13 00:01:29;;;;;;;6.25;5.90;;;;;;;;;;6119692;29;20500;-92
2023/12/13 00:04:31;;;;;;;6.75;6.20;;;;;;;;;;6116922;29;20114;-92
2023/12/13 00:07:33;;;;;;;5.45;5.25;;;;;;;;;;6118345;29;20593;-93
2023/12/13 00:10:35;;;;;;;6.55;6.13;;;;;;;;;;6119126;29;20051;-92
2023/12/13 00:13:37;;;;;;;6.43;6.15;;;;;;;;;;6117590;29;20052;-92
2023/12/13 00:16:39;;;;;;;6.25;5.93;;;;;;;;;;6118694;29;20420;-93
2023/12/13 00:19:42;;;;;;;5.55;5.35;;;;;;;;;;6114996;29;20055;-93
2023/12/13 00:22:44;;;;;;;5.68;5.47;;;;;;;;;;6118099;29;20074;-93
2023/12/13 00:25:46;;;;;;;6.28;5.93;;;;;;;;;;6117471;29;20142;-92
2023/12/13 00:28:48;;;;;;;5.07;4.93;;;;;;;;;;6117598;29;20123;-92
2023/12/13 00:31:50;;;;;;;5.22;5.03;;;;;;;;;;6117686;29;20051;-92
2023/12/13 00:34:53;;;;;;;6.18;5.88;;;;;;;;;;6117365;29;20063;-91
2023/12/13 00:37:55;;;;;;;8.00;5.78;;;;;;;;;;6114229;29;20054;-91
2023/12/13 00:40:57;;;;;;;6.35;5.85;;;;;;;;;;6116362;29;20054;-91
2023/12/13 00:43:59;;;;;;;6.03;5.82;;;;;;;;;;6116008;29;20170;-91
2023/12/13 00:47:02;;;;;;;6.75;6.35;;;;;;;;;;6115231;29;20645;-91
2023/12/13 00:50:05;;;;;;;6.57;6.03;;;;;;;;;;6117411;29;20047;-91
2023/12/13 00:53:07;;;;;;;5.68;5.47;;;;;;;;;;6115491;29;20868;-91
2023/12/13 00:56:09;;;;;;;5.38;5.18;;;;;;;;;;6115950;29;20044;-91
2023/12/13 00:59:11;;;;;;;5.88;5.65;;;;;;;;;;6117493;29;20051;-91
2023/12/13 01:02:15;;;;;;;5.93;5.72;;;;;;;;;;6112124;29;20047;-91
2023/12/13 01:05:18;;;;;;;5.30;5.10;;;;;;;;;;6112668;29;20118;-91
2023/12/13 01:08:20;;;;;;;6.70;6.38;;;;;;;;;;6095020;29;20051;-91
2023/12/13 01:11:24;;;;;;;5.75;5.55;;;;;;;;;;6110872;29;20470;-91
2023/12/13 01:14:26;;;;;;;6.47;6.18;;;;;;;;;;6116714;29;20162;-91
2023/12/13 01:17:28;;;;;;;6.00;5.65;;;;;;;;;;6113730;29;20165;-91
2023/12/13 01:20:30;;;;;;;5.97;5.78;;;;;;;;;;6116362;29;20169;-91
2023/12/13 01:23:31;;;;;;;6.70;6.32;;;;;;;;;;6114652;29;20451;-92
2023/12/13 01:26:33;;;;;;;5.85;5.65;;;;;;;;;;6115297;29;20292;-91
2023/12/13 01:29:35;;;;;;;5.57;5.38;;;;;;;;;;6116067;29;20445;-92
2023/12/13 01:32:39;;;;;;;6.20;5.80;;;;;;;;;;6114254;29;20040;-92
2023/12/13 01:35:41;;;;;;;6.68;6.25;;;;;;;;;;6114801;29;20035;-91
2023/12/13 01:38:43;;;;;;;6.55;6.25;;;;;;;;;;6115769;29;20052;-91
2023/12/13 01:41:45;;;;;;;5.38;5.18;;;;;;;;;;6107861;29;20039;-91
2023/12/13 01:44:47;;;;;;;4.90;4.80;;;;;;;;;;6116911;29;20060;-91
2023/12/13 01:47:49;;;;;;;6.38;6.07;;;;;;;;;;6112166;29;20047;-91
2023/12/13 01:50:51;;;;;;;5.45;5.25;;;;;;;;;;6114801;29;20118;-91
2023/12/13 01:53:53;;;;;;;5.78;5.47;;;;;;;;;;6115269;29;20047;-91
2023/12/13 01:56:55;;;;;;;6.70;6.40;;;;;;;;;;6113857;29;20451;-92
2023/12/13 01:59:57;;;;;;;5.85;5.53;;;;;;;;;;6116168;29;20048;-92
2023/12/13 02:02:59;;;;;;;6.28;6.07;;;;;;;;;;6112173;29;20528;-91
2023/12/13 02:06:02;;;;;;;6.35;6.05;;;;;;;;;;6118385;28;20435;-92
2023/12/13 02:09:04;;;;;;;5.88;5.68;;;;;;;;;;6113672;29;20047;-91
2023/12/13 02:12:06;;;;;;;5.43;5.22;;;;;;;;;;6114159;29;20095;-91
2023/12/13 02:15:10;;;;;;;5.30;5.10;;;;;;;;;;6114966;29;20043;-91
2023/12/13 02:18:14;;;;;;;6.20;5.95;;;;;;;;;;6100279;29;20074;-92
2023/12/13 02:21:16;;;;;;;5.38;5.18;;;;;;;;;;6108827;29;20048;-92
2023/12/13 02:24:21;;;;;;;6.70;6.35;;;;;;;;;;6113398;29;20557;-91
2023/12/13 02:27:28;;;;;;;7.25;6.85;;;;;;;;;;6114593;29;20055;-91
2023/12/13 02:30:30;;;;;;;6.13;5.82;;;;;;;;;;6115395;29;20040;-90
2023/12/13 02:33:32;;;;;;;6.20;5.95;;;;;;;;;;6114746;29;20062;-90
2023/12/13 02:36:34;;;;;;;6.28;5.95;;;;;;;;;;6112497;29;20163;-90
2023/12/13 02:39:36;;;;;;;7.57;6.05;;;;;;;;;;6115000;29;20094;-91
2023/12/13 02:42:38;;;;;;;6.70;6.43;;;;;;;;;;6093660;29;20051;-91
2023/12/13 02:45:40;;;;;;;6.68;6.40;;;;;;;;;;6115614;29;20040;-95
2023/12/13 02:48:42;;;;;;;6.03;5.82;;;;;;;;;;6116615;29;20459;-95
2023/12/13 02:51:45;;;;;;;6.90;6.53;;;;;;;;;;6115822;29;20055;-93
2023/12/13 02:54:47;;;;;;;7.32;7.00;;;;;;;;;;6114888;29;20059;-96
2023/12/13 02:57:51;;;;;;;6.30;6.00;;;;;;;;;;6110827;29;20055;-94
2023/12/13 03:00:53;;;;;;;6.05;5.85;;;;;;;;;;6113062;29;20047;-95
2023/12/13 03:03:56;;;;;;;6.40;6.20;;;;;;;;;;6114263;29;20425;-96
2023/12/13 03:06:58;;;;;;;6.07;5.88;;;;;;;;;;6133598;29;20051;-96
2023/12/13 03:10:01;;;;;;;6.10;5.90;;;;;;;;;;6116094;29;20047;-93
2023/12/13 03:13:03;;;;;;;5.18;4.95;;;;;;;;;;6104599;29;20187;-93
2023/12/13 03:16:06;;;;;;;6.25;5.90;;;;;;;;;;6099101;29;20043;-96
2023/12/13 03:19:09;;;;;;;5.20;5.00;;;;;;;;;;6129972;29;20071;-96
2023/12/13 03:22:12;;;;;;;5.20;5.00;;;;;;;;;;6103535;29;20554;-96
2023/12/13 03:25:15;;;;;;;4.95;4.85;;;;;;;;;;6115862;29;20047;-95
2023/12/13 03:28:20;;;;;;;5.20;5.00;;;;;;;;;;6132118;29;20111;-96
2023/12/13 03:31:25;;;;;;;5.40;5.20;;;;;;;;;;6104907;29;20040;-96
2023/12/13 03:34:39;;;;;;;4.47;4.38;;;;;;;;;;6119112;29;20058;-96
2023/12/13 03:38:01;;;;;;;4.70;4.60;;;;;;;;;;6133372;29;20040;-96
2023/12/13 03:41:03;;;;;;;4.90;4.70;;;;;;;;;;6120695;29;20047;-95
2023/12/13 03:44:05;;;;;;;4.25;4.15;;;;;;;;;;6120372;29;20054;-95
2023/12/13 03:47:07;;;;;;;4.50;4.40;;;;;;;;;;6121266;29;20059;-94
2023/12/13 03:50:09;;;;;;;5.20;5.00;;;;;;;;;;6120198;29;20090;-94
2023/12/13 03:53:12;;;;;;;5.00;4.85;;;;;;;;;;6119204;29;20040;-93
2023/12/13 03:56:14;;;;;;;5.05;4.95;;;;;;;;;;6119295;29;20040;-94
2023/12/13 03:59:16;;;;;;;4.85;4.75;;;;;;;;;;6101862;29;20055;-95
2023/12/13 04:02:18;;;;;;;5.25;5.05;;;;;;;;;;6121820;29;20573;-94
2023/12/13 04:05:27;;;;;;;4.93;4.82;;;;;;;;;;6123463;29;20130;-95
2023/12/13 04:08:30;;;;;;;4.95;4.85;;;;;;;;;;6130476;29;20204;-94
2023/12/13 04:11:32;;;;;;;4.90;4.80;;;;;;;;;;6119200;29;20168;-93
2023/12/13 04:14:34;;;;;;;4.82;4.72;;;;;;;;;;6120410;29;20044;-92
2023/12/13 04:17:36;;;;;;;5.32;5.13;;;;;;;;;;6120249;29;20040;-92
2023/12/13 04:20:39;;;;;;;5.65;5.45;;;;;;;;;;6119137;29;20050;-92
2023/12/13 04:23:41;;;;;;;4.72;4.63;;;;;;;;;;6118580;29;20035;-93
2023/12/13 04:26:43;;;;;;;4.40;4.30;;;;;;;;;;6118372;29;20234;-90
2023/12/13 04:29:46;;;;;;;4.60;4.50;;;;;;;;;;6117413;29;20411;-93
2023/12/13 04:32:47;;;;;;;5.38;5.18;;;;;;;;;;6120106;29;20044;-91
2023/12/13 04:35:53;;;;;;;5.25;5.05;;;;;;;;;;6114608;29;20048;-91
2023/12/13 04:38:56;;;;;;;4.68;4.57;;;;;;;;;;6118412;29;20048;-91
2023/12/13 04:41:58;;;;;;;4.43;4.32;;;;;;;;;;6120308;29;20054;-91
2023/12/13 04:45:00;;;;;;;4.68;4.57;;;;;;;;;;6119836;29;20074;-92
2023/12/13 04:48:02;;;;;;;4.93;4.75;;;;;;;;;;6119778;29;20039;-91
2023/12/13 04:51:05;;;;;;;5.70;5.50;;;;;;;;;;6105903;29;20047;-91
2023/12/13 04:54:06;;;;;;;4.22;4.13;;;;;;;;;;6118017;29;20428;-92
2023/12/13 04:57:08;;;;;;;4.68;4.57;;;;;;;;;;6117707;29;20076;-92
2023/12/13 05:00:11;;;;;;;5.22;5.03;;;;;;;;;;6106393;29;20427;-92
2023/12/13 05:03:13;;;;;;;5.22;5.03;;;;;;;;;;6114748;29;20047;-91
2023/12/13 05:06:15;;;;;;;5.30;5.10;;;;;;;;;;6119948;29;20047;-91
2023/12/13 05:09:17;;;;;;;5.00;4.85;;;;;;;;;;6119570;29;20062;-91
2023/12/13 05:12:19;;;;;;;4.43;4.32;;;;;;;;;;6118936;29;20047;-91
2023/12/13 05:15:20;;;;;;;5.00;4.80;;;;;;;;;;6117383;29;20046;-91
2023/12/13 05:18:23;;;;;;;5.78;5.57;;;;;;;;;;6118726;29;20054;-91
2023/12/13 05:21:26;;;;;;;5.35;5.15;;;;;;;;;;6117236;29;20075;-91
2023/12/13 05:24:27;;;;;;;4.60;4.50;;;;;;;;;;6101382;29;20083;-91
2023/12/13 05:27:29;;;;;;;4.88;4.78;;;;;;;;;;6111482;29;20051;-91
2023/12/13 05:30:31;;;;;;;4.70;4.60;;;;;;;;;;6101548;29;20039;-91
2023/12/13 05:33:34;;;;;;;5.10;4.93;;;;;;;;;;6118717;29;20115;-91
2023/12/13 05:36:36;;;;;;;4.75;4.65;;;;;;;;;;6116569;29;20123;-92
2023/12/13 05:39:38;;;;;;;5.18;4.97;;;;;;;;;;6100693;29;20126;-91
2023/12/13 05:42:40;;;;;;;5.32;5.13;;;;;;;;;;6111009;29;20460;-92
2023/12/13 05:45:42;;;;;;;5.25;5.05;;;;;;;;;;6118507;29;20036;-91
2023/12/13 05:48:44;;;;;;;5.65;5.45;;;;;;;;;;6116626;29;20095;-91
2023/12/13 05:51:46;;;;;;;4.95;4.85;;;;;;;;;;6116799;29;20043;-91
2023/12/13 05:54:48;;;;;;;5.15;5.05;;;;;;;;;;6118065;29;20058;-91
2023/12/13 05:57:50;;;;;;;5.00;4.90;;;;;;;;;;6117893;29;20047;-91
2023/12/13 06:00:52;;;;;;;4.93;4.82;;;;;;;;;;6105066;29;20529;-90
2023/12/13 06:03:53;;;;;;;5.85;5.65;;;;;;;;;;6100674;29;20103;-90
2023/12/13 06:06:55;;;;;;;6.57;6.28;;;;;;;;;;6117863;29;20090;-90
2023/12/13 06:09:57;;;;;;;5.68;5.47;;;;;;;;;;6106039;29;20048;-90
2023/12/13 06:13:00;;;;;;;5.70;5.50;;;;;;;;;;6111957;29;20048;-90
2023/12/13 06:16:02;;;;;;;5.22;5.07;;;;;;;;;;6118740;29;20497;-90
2023/12/13 06:19:05;;;;;;;5.55;5.35;;;;;;;;;;6112866;29;20040;-90
2023/12/13 06:22:07;;;;;;;5.82;5.63;;;;;;;;;;6118054;29;20577;-90
2023/12/13 06:25:09;;;;;;;5.15;4.95;;;;;;;;;;6100365;29;20505;-90
2023/12/13 06:28:10;;;;;;;5.60;5.40;;;;;;;;;;6116228;29;20074;-90
2023/12/13 06:31:12;;;;;;;5.72;5.45;;;;;;;;;;6118060;29;20194;-90
2023/12/13 06:34:14;;;;;;;5.32;5.13;;;;;;;;;;6117837;29;20039;-90
2023/12/13 06:37:16;;;;;;;5.20;5.00;;;;;;;;;;6116339;29;20062;-90
2023/12/13 06:40:18;;;;;;;6.65;6.00;;;;;;;;;;6117282;29;20614;-91
2023/12/13 06:43:20;;;;;;;5.63;5.43;;;;;;;;;;6118087;29;20436;-91
2023/12/13 06:46:23;;;;;;;6.28;5.97;;;;;;;;;;6117872;29;20047;-90
2023/12/13 06:49:30;;;;;;;5.97;5.68;;;;;;;;;;6115347;29;20047;-90
2023/12/13 06:52:32;;;;;;;5.43;5.22;;;;;;;;;;6119691;29;20048;-90
2023/12/13 06:55:34;;;;;;;4.90;4.80;;;;;;;;;;6113839;29;20122;-90
2023/12/13 06:58:36;;;;;;;6.50;6.22;;;;;;;;;;6106604;29;20406;-90
2023/12/13 07:01:38;;;;;;;5.82;5.63;;;;;;;;;;6104378;29;20403;-90
2023/12/13 07:04:42;;;;;;;5.60;5.40;;;;;;;;;;6121761;29;20043;-90
2023/12/13 07:07:46;;;;;;;5.72;5.53;;;;;;;;;;6119623;29;20139;-90
2023/12/13 07:10:48;;;;;;;5.43;5.22;;;;;;;;;;6121618;29;20044;-90
2023/12/13 07:13:50;;;;;;;5.65;5.38;;;;;;;;;;6120211;29;20043;-90
2023/12/13 07:16:52;;;;;;;6.03;5.82;;;;;;;;;;6121674;29;20051;-90
2023/12/13 07:19:54;;;;;;;6.05;5.85;;;;;;;;;;6120959;29;20051;-90
2023/12/13 07:22:56;;;;;;;7.32;7.03;;;;;;;;;;6121497;29;20596;-90
2023/12/13 07:25:58;;;;;;;6.00;5.70;;;;;;;;;;6120397;29;20051;-90
2023/12/13 07:29:01;;;;;;;5.93;5.72;;;;;;;;;;6118570;29;20058;-90
2023/12/13 07:32:04;;;;;;;5.82;5.53;;;;;;;;;;6120332;29;20521;-90
2023/12/13 07:35:06;;;;;;;6.53;6.22;;;;;;;;;;6121589;29;20047;-90
2023/12/13 07:38:08;;;;;;;5.93;5.72;;;;;;;;;;6121852;29;20051;-90
2023/12/13 07:41:10;;;;;;;5.72;5.53;;;;;;;;;;6121018;29;20051;-90
2023/12/13 07:44:12;;;;;;;5.18;4.97;;;;;;;;;;6120657;29;20569;-90
2023/12/13 07:47:13;;;;;;;5.43;5.22;;;;;;;;;;6127146;29;20059;-90
2023/12/13 07:50:15;;;;;;;6.72;6.43;;;;;;;;;;6119563;29;20429;-89
2023/12/13 07:53:17;;;;;;;6.53;6.28;;;;;;;;;;6120671;29;20047;-89
2023/12/13 07:56:18;;;;;;;5.93;5.53;;;;;;;;;;6120362;29;20052;-89
2023/12/13 07:59:28;;;;;;;5.55;5.18;;;;;;;;;;6116224;29;20183;-89
2023/12/13 08:02:31;;;;;;;5.68;5.47;;;;;;;;;;6118009;29;20059;-90
2023/12/13 08:05:41;;;;;;;6.03;5.80;;;;;;;;;;6119629;29;20036;-90
2023/12/13 08:08:43;;;;;;;5.55;5.35;;;;;;;;;;6102778;29;20234;-89
2023/12/13 08:11:49;;;;;;;5.57;5.38;;;;;;;;;;6118561;29;20044;-90
2023/12/13 08:14:50;;;;;;;5.78;5.57;;;;;;;;;;6115108;29;20051;-89
2023/12/13 08:17:52;;;;;;;6.68;6.28;;;;;;;;;;6102716;29;20122;-90
2023/12/13 08:20:54;;;;;;;6.60;6.40;;;;;;;;;;6117938;29;20052;-89
2023/12/13 08:23:56;;;;;;;4.95;4.82;;;;;;;;;;6114163;29;20125;-90
2023/12/13 08:26:58;;;;;;;5.82;5.63;;;;;;;;;;6120112;29;20051;-90
2023/12/13 08:30:00;;;;;;;5.03;4.82;;;;;;;;;;6117690;29;20055;-90
2023/12/13 08:33:02;;;;;;;4.80;4.70;;;;;;;;;;6118400;29;20510;-90
2023/12/13 08:36:08;;;;;;;5.35;5.15;;;;;;;;;;6115355;29;20048;-89
2023/12/13 08:39:09;;;;;;;5.32;5.13;;;;;;;;;;6119643;29;20039;-90
2023/12/13 08:42:11;;;;;;;5.53;5.32;;;;;;;;;;6120370;29;20043;-90
2023/12/13 08:45:13;;;;;;;6.50;5.80;;;;;;;;;;6119000;29;20122;-90
2023/12/13 08:48:15;;;;;;;5.45;5.22;;;;;;;;;;6118554;29;20052;-90
2023/12/13 08:51:17;;;;;;;5.30;5.10;;;;;;;;;;6117783;29;20055;-90
2023/12/13 08:54:19;;;;;;;5.95;5.65;;;;;;;;;;6117681;29;20413;-90
2023/12/13 08:57:20;;;;;;;4.97;4.78;;;;;;;;;;6117720;29;20694;-90
2023/12/13 09:00:23;;;;;;;6.10;5.72;;;;;;;;;;6116260;29;20052;-90
2023/12/13 09:03:24;;;;;;;6.18;5.95;;;;;;;;;;6118142;29;20458;-90
2023/12/13 09:06:27;;;;;;;5.38;5.18;;;;;;;;;;6119570;29;20470;-90
2023/12/13 09:09:31;;;;;;;5.90;5.47;;;;;;;;;;6094536;29;20119;-90
2023/12/13 09:12:36;;;;;;;5.15;4.95;;;;;;;;;;6118093;29;20075;-89
2023/12/13 09:15:38;;;;;;;5.20;4.90;;;;;;;;;;6116570;29;20035;-89
2023/12/13 09:18:43;;;;;;;4.72;4.60;;;;;;;;;;6118617;29;20052;-89
2023/12/13 09:21:45;;;;;;;6.28;5.97;;;;;;;;;;6116857;29;20588;-89
2023/12/13 09:24:47;;;;;;;5.50;5.30;;;;;;;;;;6102553;29;20052;-89
2023/12/13 09:27:49;;;;;;;5.57;5.30;;;;;;;;;;6117301;29;20439;-89
2023/12/13 09:30:51;;;;;;;5.00;4.80;;;;;;;;;;6114118;29;20357;-89
2023/12/13 09:33:53;;;;;;;5.43;5.22;;;;;;;;;;6113557;29;20142;-89
2023/12/13 09:36:55;;;;;;;5.70;5.47;;;;;;;;;;6115648;29;20054;-89
2023/12/13 09:39:59;;;;;;;4.95;4.78;;;;;;;;;;6115438;29;20052;-89
2023/12/13 09:43:04;;;;;;;4.88;4.68;;;;;;;;;;6118191;29;20043;-88
2023/12/13 09:46:07;;;;;;;5.70;5.50;;;;;;;;;;6116466;29;20073;-88
2023/12/13 09:49:09;;;;;;;4.90;4.80;;;;;;;;;;6116897;29;20043;-88
2023/12/13 09:52:29;;;;;;;4.40;4.30;;;;;;;;;;6114455;29;20056;-88
2023/12/13 09:55:32;;;;;;;5.50;5.30;;;;;;;;;;6116134;29;20058;-88
2023/12/13 09:58:34;;;;;;;4.55;4.45;;;;;;;;;;6116098;29;20509;-93
2023/12/13 10:01:42;;;;;;;5.25;5.05;;;;;;;;;;6118081;29;20102;-96
2023/12/13 10:04:44;;;;;;;4.85;4.65;;;;;;;;;;6116683;29;20421;-92
2023/12/13 10:07:48;;;;;;;4.85;4.75;;;;;;;;;;6113149;29;20170;-91
2023/12/13 10:10:50;;;;;;;5.78;5.57;;;;;;;;;;6112432;29;20502;-91
2023/12/13 10:13:52;;;;;;;4.60;4.50;;;;;;;;;;6116403;29;20051;-90
2023/12/13 10:16:54;;;;;;;4.40;4.30;;;;;;;;;;6117272;29;20036;-90
2023/12/13 10:20:12;;;;;;;4.63;4.53;;;;;;;;;;6111264;29;20130;-90
2023/12/13 10:23:14;;;;;;;6.40;6.10;;;;;;;;;;6113913;29;20044;-90
2023/12/13 10:26:16;;;;;;;5.63;5.43;;;;;;;;;;6116743;29;20047;-90
2023/12/13 10:29:24;;;;;;;5.53;5.32;;;;;;;;;;6121595;29;20043;-90
2023/12/13 10:32:26;;;;;;;5.15;4.95;;;;;;;;;;6122896;29;20048;-93
2023/12/13 10:35:28;;;;;;;4.50;4.40;;;;;;;;;;6121884;29;20035;-90
2023/12/13 10:38:31;;;;;;;6.13;5.93;;;;;;;;;;6121920;29;20044;-89
2023/12/13 10:41:34;;;;;;;5.05;4.88;;;;;;;;;;6119734;29;20098;-89
2023/12/13 10:44:36;;;;;;;5.22;5.05;;;;;;;;;;6120003;29;20039;-90
2023/12/13 10:47:43;;;;;;;5.50;5.20;;;;;;;;;;6120982;29;20047;-89
2023/12/13 10:50:48;;;;;;;5.72;5.53;;;;;;;;;;6102249;29;20554;-89
2023/12/13 10:53:51;;;;;;;4.68;4.57;;;;;;;;;;6108858;29;20044;-89
2023/12/13 10:56:53;;;;;;;4.60;4.50;;;;;;;;;;6120400;29;20043;-89
2023/12/13 10:59:55;;;;;;;5.10;4.90;;;;;;;;;;6120776;29;20051;-89
2023/12/13 11:03:05;;;;;;;5.18;4.97;;;;;;;;;;6120401;29;20495;-90
2023/12/13 11:06:07;;;;;;;4.60;4.50;;;;;;;;;;6119616;29;20043;-90
2023/12/13 11:09:17;;;;;;;4.80;4.60;;;;;;;;;;6119726;29;20039;-90
2023/12/13 11:12:19;;;;;;;4.45;4.35;;;;;;;;;;6120130;29;20191;-90
2023/12/13 11:15:21;;;;;;;4.45;4.35;;;;;;;;;;6120855;29;20514;-90
2023/12/13 11:18:24;;;;;;;4.40;4.30;;;;;;;;;;6119876;29;20530;-90
2023/12/13 11:21:33;;;;;;;4.55;4.45;;;;;;;;;;6115968;29;20044;-89
2023/12/13 11:24:36;;;;;;;4.93;4.82;;;;;;;;;;6120544;29;20046;-89
2023/12/13 11:27:50;;;;;;;4.13;4.03;;;;;;;;;;6120003;29;20085;-89
2023/12/13 11:30:58;;;;;;;4.38;4.28;;;;;;;;;;6120132;29;20055;-89
2023/12/13 11:34:00;;;;;;;4.88;4.78;;;;;;;;;;6119848;29;20044;-89
2023/12/13 11:37:02;;;;;;;4.55;4.45;;;;;;;;;;6117823;29;20051;-89
2023/12/13 11:40:06;;;;;;;4.47;4.38;;;;;;;;;;6112418;29;20072;-89
2023/12/13 11:43:07;;;;;;;4.50;4.40;;;;;;;;;;6120201;29;20051;-88
2023/12/13 11:46:11;;;;;;;4.32;4.22;;;;;;;;;;6119715;29;20052;-89
2023/12/13 11:49:13;;;;;;;4.55;4.45;;;;;;;;;;6116073;29;20052;-89
2023/12/13 11:52:14;;;;;;;4.50;4.40;;;;;;;;;;6119827;29;20139;-88
2023/12/13 11:55:17;;;;;;;4.40;4.30;;;;;;;;;;6110094;29;20052;-89
2023/12/13 11:58:27;;;;;;;5.13;4.97;;;;;;;;;;6115993;29;20043;-89
2023/12/13 12:01:30;;;;;;;4.93;4.78;;;;;;;;;;6120161;29;20360;-89
2023/12/13 12:04:31;;;;;;;4.38;4.28;;;;;;;;;;6114730;29;20134;-89
2023/12/13 12:07:33;;;;;;;4.32;4.22;;;;;;;;;;6117469;29;20819;-89
2023/12/13 12:10:35;;;;;;;4.78;4.68;;;;;;;;;;6118782;29;20040;-89
2023/12/13 12:13:43;;;;;;;4.90;4.80;;;;;;;;;;6118854;29;20047;-89
2023/12/13 12:16:45;;;;;;;4.75;4.65;;;;;;;;;;6116834;29;20545;-89
2023/12/13 12:19:47;;;;;;;4.88;4.68;;;;;;;;;;6120623;29;20043;-89
2023/12/13 12:22:49;;;;;;;4.47;4.38;;;;;;;;;;6119576;29;20051;-89
2023/12/13 12:25:57;;;;;;;4.60;4.50;;;;;;;;;;6119128;29;20055;-89
2023/12/13 12:28:59;;;;;;;4.53;4.43;;;;;;;;;;6120447;29;20060;-89
2023/12/13 12:32:03;;;;;;;5.53;5.32;;;;;;;;;;6118190;29;20467;-89
2023/12/13 12:35:06;;;;;;;4.20;4.07;;;;;;;;;;6117907;29;20039;-90
2023/12/13 12:38:09;;;;;;;4.82;4.72;;;;;;;;;;6117963;29;20051;-90
2023/12/13 12:41:11;;;;;;;4.15;4.05;;;;;;;;;;6119841;29;20077;-89
2023/12/13 12:44:13;;;;;;;4.35;4.25;;;;;;;;;;6106585;29;20048;-89
2023/12/13 12:47:15;;;;;;;4.20;4.10;;;;;;;;;;6119729;29;20072;-90
2023/12/13 12:50:17;;;;;;;4.63;4.53;;;;;;;;;;6119457;29;20047;-89
2023/12/13 12:53:19;;;;;;;4.75;4.65;;;;;;;;;;6113936;29;20044;-89
2023/12/13 12:56:21;;;;;;;5.28;5.07;;;;;;;;;;6118621;29;20056;-90
2023/12/13 12:59:23;;;;;;;4.43;4.32;;;;;;;;;;6119738;29;20553;-89
2023/12/13 13:02:25;;;;;;;5.20;5.00;;;;;;;;;;6116608;29;20052;-89
2023/12/13 13:05:27;;;;;;;5.97;5.78;;;;;;;;;;6119285;29;20039;-89
2023/12/13 13:08:29;;;;;;;4.53;4.43;;;;;;;;;;6119394;29;20071;-90
2023/12/13 13:11:30;;;;;;;4.47;4.28;;;;;;;;;;6118840;29;20664;-90
2023/12/13 13:14:32;;;;;;;4.35;4.25;;;;;;;;;;6118013;29;20398;-90
2023/12/13 13:17:34;;;;;;;5.05;4.90;;;;;;;;;;6117316;29;20050;-90
2023/12/13 13:20:38;;;;;;;4.47;4.38;;;;;;;;;;6119823;29;20079;-90
2023/12/13 13:23:40;;;;;;;3.95;3.85;;;;;;;;;;6118688;29;20901;-90
2023/12/13 13:26:42;;;;;;;4.30;4.20;;;;;;;;;;6117539;29;20119;-90
2023/12/13 13:29:43;;;;;;;4.75;4.65;;;;;;;;;;6114508;29;20054;-89
2023/12/13 13:32:45;;;;;;;4.03;3.92;;;;;;;;;;6116944;29;20162;-90
2023/12/13 13:35:50;;;;;;;4.65;4.55;;;;;;;;;;6118257;29;20560;-90
2023/12/13 13:38:52;;;;;;;4.00;3.90;;;;;;;;;;6118536;29;20138;-90
2023/12/13 13:41:54;;;;;;;4.47;4.38;;;;;;;;;;6102277;29;20087;-89
2023/12/13 13:44:56;;;;;;;8.30;8.00;;;;;;;;;;6109846;29;20558;-90
2023/12/13 13:47:57;;;;;;;5.03;4.88;;;;;;;;;;6110669;29;20562;-90
2023/12/13 13:51:00;;;;;;;4.38;4.28;;;;;;;;;;6115650;29;20054;-90
2023/12/13 13:54:02;;;;;;;4.35;4.25;;;;;;;;;;6116510;29;20056;-89
2023/12/13 13:57:08;;;;;;;5.07;4.88;;;;;;;;;;6118142;29;20059;-89
2023/12/13 14:00:13;;;;;;;4.88;4.68;;;;;;;;;;6113630;29;20071;-89
2023/12/13 14:03:15;;;;;;;4.65;4.55;;;;;;;;;;6111322;29;20039;-89
2023/12/13 14:06:18;;;;;;;5.15;4.95;;;;;;;;;;6117149;29;20047;-88
2023/12/13 14:09:20;;;;;;;5.70;5.50;;;;;;;;;;6108218;29;20415;-88
2023/12/13 14:12:21;;;;;;;4.82;4.72;;;;;;;;;;6112470;29;20047;-88
2023/12/13 14:15:23;;;;;;;4.80;4.70;;;;;;;;;;6115464;29;20800;-88
2023/12/13 14:18:25;;;;;;;5.07;4.85;;;;;;;;;;6115782;29;20036;-88
2023/12/13 14:21:27;;;;;;;4.78;4.65;;;;;;;;;;6112734;29;20411;-88
2023/12/13 14:24:29;;;;;;;4.70;4.60;;;;;;;;;;6115935;29;20047;-88
2023/12/13 14:27:31;;;;;;;4.75;4.55;;;;;;;;;;6113986;29;20054;-88
2023/12/13 14:30:33;;;;;;;4.50;4.32;;;;;;;;;;6111271;29;20048;-88
2023/12/13 14:33:35;;;;;;;5.32;5.13;;;;;;;;;;6114994;29;20052;-88
2023/12/13 14:36:38;;;;;;;4.88;4.75;;;;;;;;;;6114571;29;20122;-88
2023/12/13 14:39:40;;;;;;;5.80;5.50;;;;;;;;;;6111787;29;20118;-88
2023/12/13 14:42:45;;;;;;;5.53;5.32;;;;;;;;;;6103474;29;20051;-88
2023/12/13 14:45:47;;;;;;;5.40;5.20;;;;;;;;;;6112492;29;20055;-88
2023/12/13 14:48:50;;;;;;;6.32;6.03;;;;;;;;;;6113325;29;20304;-87
2023/12/13 14:51:55;;;;;;;5.45;5.25;;;;;;;;;;6114742;29;20051;-87
2023/12/13 14:54:58;;;;;;;5.65;5.45;;;;;;;;;;6115870;29;20051;-87
2023/12/13 14:58:00;;;;;;;5.20;5.00;;;;;;;;;;6115465;29;20427;-92
2023/12/13 15:01:02;;;;;;;5.70;5.30;;;;;;;;;;6121006;29;20062;-90
2023/12/13 15:04:08;;;;;;;5.65;5.20;;;;;;;;;;6113455;29;20098;-89
2023/12/13 15:07:10;;;;;;;6.63;6.20;;;;;;;;;;6114062;29;20052;-96
2023/12/13 15:10:15;;;;;;;6.05;5.75;;;;;;;;;;6114126;29;20051;-90
2023/12/13 15:13:17;;;;;;;6.07;5.80;;;;;;;;;;6116252;29;20059;-90
2023/12/13 15:16:19;;;;;;;7.35;6.70;;;;;;;;;;6113051;29;20050;-95
2023/12/13 15:19:21;;;;;;;5.90;5.70;;;;;;;;;;6118971;29;20062;-91
2023/12/13 15:22:23;;;;;;;6.50;6.18;;;;;;;;;;6116192;29;20348;-90
2023/12/13 15:25:25;;;;;;;5.45;5.25;;;;;;;;;;6119469;29;20105;-88
2023/12/13 15:28:27;;;;;;;6.22;5.93;;;;;;;;;;6118693;29;20039;-89
2023/12/13 15:31:29;;;;;;;6.00;5.80;;;;;;;;;;6118844;29;20494;-89
2023/12/13 15:34:31;;;;;;;5.50;5.30;;;;;;;;;;6120043;29;20047;-89
2023/12/13 15:37:32;;;;;;;5.88;5.60;;;;;;;;;;6118986;29;20067;-89
2023/12/13 15:40:36;;;;;;;6.15;5.85;;;;;;;;;;6119870;29;20047;-89
2023/12/13 15:43:37;;;;;;;5.65;5.45;;;;;;;;;;6119976;29;20580;-89
2023/12/13 15:46:39;;;;;;;5.68;5.47;;;;;;;;;;6117742;29;20070;-89
2023/12/13 15:49:40;;;;;;;6.57;6.18;;;;;;;;;;6118368;29;20564;-89
2023/12/13 15:52:45;;;;;;;5.93;5.72;;;;;;;;;;6119290;29;20051;-88
2023/12/13 15:55:47;;;;;;;5.38;5.18;;;;;;;;;;6118166;29;20502;-89
2023/12/13 15:58:49;;;;;;;6.50;6.22;;;;;;;;;;6120259;29;20067;-89
2023/12/13 16:01:51;;;;;;;5.80;5.57;;;;;;;;;;6118847;29;20102;-89
2023/12/13 16:04:54;;;;;;;6.95;6.22;;;;;;;;;;6119256;29;20379;-89
2023/12/13 16:07:55;;;;;;;6.38;6.18;;;;;;;;;;6119074;29;20051;-89
2023/12/13 16:10:57;;;;;;;6.82;6.22;;;;;;;;;;6119384;29;20381;-90
2023/12/13 16:14:00;;;;;;;6.30;6.03;;;;;;;;;;6119112;29;20175;-89
2023/12/13 16:17:03;;;;;;;7.28;6.88;;;;;;;;;;6114254;29;20066;-89
2023/12/13 16:20:08;;;;;;;7.22;6.85;;;;;;;;;;6114953;29;20040;-89
2023/12/13 16:23:10;;;;;;;7.32;6.75;;;;;;;;;;6117879;29;20103;-89
2023/12/13 16:26:12;;;;;;;6.38;6.07;;;;;;;;;;6118909;29;20074;-89
2023/12/13 16:29:13;;;;;;;5.82;5.55;;;;;;;;;;6113965;29;20139;-89
2023/12/13 16:32:28;;;;;;;7.22;6.82;;;;;;;;;;6116987;29;20043;-89
2023/12/13 16:35:30;;;;;;;6.68;6.38;;;;;;;;;;6115823;29;20096;-89
2023/12/13 16:38:32;;;;;;;5.47;5.28;;;;;;;;;;6117893;29;20134;-88
2023/12/13 16:41:34;;;;;;;8.73;8.25;;;;;;;;;;6116930;29;20405;-88
2023/12/13 16:44:36;;;;;;;7.28;6.88;;;;;;;;;;6117718;29;20414;-89
2023/12/13 16:47:37;;;;;;;7.43;7.03;;;;;;;;;;6118339;29;20113;-89
2023/12/13 16:50:39;;;;;;;6.88;6.40;;;;;;;;;;6118057;29;20418;-89
2023/12/13 16:53:41;;;;;;;6.72;6.20;;;;;;;;;;6118955;29;20069;-89
2023/12/13 16:56:52;;;;;;;7.30;6.90;;;;;;;;;;6117309;29;20047;-89
2023/12/13 16:59:55;;;;;;;6.60;6.28;;;;;;;;;;6117193;29;20048;-89
2023/12/13 17:02:59;;;;;;;6.07;5.82;;;;;;;;;;6115139;29;20047;-89
2023/12/13 17:06:01;;;;;;;7.55;7.15;;;;;;;;;;6113517;29;20054;-89
2023/12/13 17:09:06;;;;;;;6.38;6.07;;;;;;;;;;6118028;29;20273;-89
2023/12/13 17:12:08;;;;;;;6.45;6.10;;;;;;;;;;6116958;29;20048;-89
2023/12/13 17:15:11;;;;;;;7.97;7.38;;;;;;;;;;6098682;29;20043;-89
2023/12/13 17:18:12;;;;;;;7.28;6.93;;;;;;;;;;6107234;29;20087;-89
2023/12/13 17:21:15;;;;;;;6.38;6.07;;;;;;;;;;6117099;29;20051;-89
2023/12/13 17:24:17;;;;;;;6.57;6.38;;;;;;;;;;6116960;29;20043;-88
2023/12/13 17:27:19;;;;;;;6.80;6.50;;;;;;;;;;6117203;29;20039;-89
2023/12/13 17:30:20;;;;;;;6.65;6.35;;;;;;;;;;6114982;29;20138;-89
2023/12/13 17:33:22;;;;;;;7.47;6.97;;;;;;;;;;6116711;29;20106;-89
2023/12/13 17:36:24;;;;;;;6.63;6.40;;;;;;;;;;6116284;29;20082;-89
2023/12/13 17:39:26;;;;;;;6.57;6.15;;;;;;;;;;6116818;29;20052;-89
2023/12/13 17:42:33;;;;;;;5.82;5.57;;;;;;;;;;6117538;29;20069;-89
2023/12/13 17:45:35;;;;;;;5.95;5.75;;;;;;;;;;6116237;29;20048;-89
2023/12/13 17:48:37;;;;;;;5.60;5.40;;;;;;;;;;6116486;29;20123;-89
2023/12/13 17:51:39;;;;;;;5.95;5.75;;;;;;;;;;6115936;29;20110;-89
2023/12/13 17:54:42;;;;;;;6.43;6.07;;;;;;;;;;6115744;29;20047;-89
2023/12/13 17:57:43;;;;;;;5.93;5.55;;;;;;;;;;6117377;29;20058;-89
2023/12/13 18:00:47;;;;;;;7.72;7.32;;;;;;;;;;6116330;29;20438;-89
2023/12/13 18:03:49;;;;;;;7.03;6.63;;;;;;;;;;6116367;29;20051;-89
2023/12/13 18:06:50;;;;;;;6.13;5.82;;;;;;;;;;6115121;29;20051;-89
2023/12/13 18:09:52;;;;;;;5.88;5.68;;;;;;;;;;6116561;29;20204;-89
2023/12/13 18:12:54;;;;;;;7.30;6.82;;;;;;;;;;6114605;29;20522;-89
2023/12/13 18:15:55;;;;;;;7.13;6.80;;;;;;;;;;6115758;29;20039;-89